createdAt,value
2023-03-03T00:00:09.113Z,41.88
2023-03-03T00:05:35.795Z,38.30
2023-03-03T00:10:39.761Z,39.58
2023-03-03T00:15:43.365Z,37.90
2023-03-03T00:20:53.368Z,37.72
2023-03-03T00:25:57.543Z,35.15
2023-03-03T00:31:03.474Z,36.05
2023-03-03T00:36:37.206Z,36.28
2023-03-03T00:41:41.533Z,33.65
2023-03-03T00:46:44.903Z,34.42
2023-03-03T00:51:49.669Z,35.78
2023-03-03T00:56:53.077Z,36.53
2023-03-03T01:01:56.504Z,37.08
2023-03-03T01:07:01.274Z,32.13
2023-03-03T01:12:04.933Z,33.53
2023-03-03T01:17:08.870Z,31.83
2023-03-03T01:22:13.564Z,31.80
2023-03-03T01:27:17.151Z,27.63
2023-03-03T01:32:20.758Z,30.65
2023-03-03T01:37:25.676Z,26.70
2023-03-03T01:42:30.113Z,28.13
2023-03-03T01:47:36.092Z,27.88
2023-03-03T01:52:44.455Z,28.05
2023-03-03T01:57:53.769Z,28.42
2023-03-03T02:02:57.463Z,27.10
2023-03-03T02:08:02.734Z,26.38
2023-03-03T02:13:06.486Z,27.00
2023-03-03T02:18:13.426Z,27.80
2023-03-03T02:23:24.034Z,25.55
2023-03-03T02:28:30.988Z,22.60
2023-03-03T02:33:34.476Z,23.08
2023-03-03T02:38:42.716Z,26.45
2023-03-03T02:43:56.408Z,24.52
2023-03-03T02:48:59.766Z,26.15
2023-03-03T02:54:03.875Z,26.63
2023-03-03T02:59:09.055Z,23.67
2023-03-03T03:04:14.706Z,24.48
2023-03-03T03:09:19.494Z,27.00
2023-03-03T03:14:24.740Z,27.13
2023-03-03T03:19:28.336Z,29.25
2023-03-03T03:24:32.053Z,27.52
2023-03-03T03:29:36.887Z,25.42
2023-03-03T03:34:40.283Z,26.17
2023-03-03T03:39:43.905Z,26.33
2023-03-03T03:44:49.328Z,28.73
2023-03-03T03:49:52.828Z,23.50
2023-03-03T03:54:56.215Z,25.27
2023-03-03T04:00:01.263Z,25.83
2023-03-03T04:05:07.398Z,28.05
2023-03-03T04:10:12.222Z,26.55
2023-03-03T04:15:17.021Z,26.70
2023-03-03T04:20:20.679Z,25.90
2023-03-03T04:25:24.155Z,25.63
2023-03-03T04:30:28.998Z,26.88
2023-03-03T04:35:32.504Z,25.58
2023-03-03T04:40:35.931Z,23.17
2023-03-03T04:45:41.263Z,23.00
2023-03-03T04:50:44.683Z,22.05
2023-03-03T04:55:48.080Z,20.67
2023-03-03T05:00:57.470Z,21.00
2023-03-03T05:06:00.889Z,20.73
2023-03-03T05:11:06.755Z,20.02
2023-03-03T05:16:11.574Z,21.33
2023-03-03T05:21:14.972Z,19.48
2023-03-03T05:26:18.345Z,18.52
2023-03-03T05:31:23.593Z,16.95
2023-03-03T05:36:27.189Z,17.50
2023-03-03T05:41:30.734Z,17.65
2023-03-03T05:46:35.824Z,18.63
2023-03-03T05:51:39.479Z,16.05
2023-03-03T05:56:42.975Z,14.35
2023-03-03T06:01:48.106Z,13.27
2023-03-03T06:06:51.486Z,12.50
2023-03-03T06:11:54.870Z,12.60
2023-03-03T06:16:59.876Z,14.77
2023-03-03T06:22:03.309Z,15.07
2023-03-03T06:27:06.951Z,14.30
2023-03-03T06:32:12.051Z,11.07
2023-03-03T06:37:15.508Z,11.85
2023-03-03T06:42:18.981Z,12.77
2023-03-03T06:47:24.584Z,12.98
2023-03-03T06:52:29.379Z,11.18
2023-03-03T06:57:34.743Z,13.25
2023-03-03T07:02:39.536Z,13.63
2023-03-03T07:07:43.254Z,13.15
2023-03-03T07:12:46.673Z,12.73
2023-03-03T07:17:58.093Z,13.45
2023-03-03T07:23:01.826Z,14.93
2023-03-03T07:28:21.634Z,12.73
2023-03-03T07:33:29.131Z,11.95
2023-03-03T07:38:36.940Z,11.88
2023-03-03T07:43:44.673Z,13.20
2023-03-03T07:48:50.464Z,12.80
2023-03-03T07:53:54.981Z,13.20
2023-03-03T07:58:59.388Z,12.38
2023-03-03T08:04:08.247Z,13.93
2023-03-03T08:09:37.777Z,14.18
2023-03-03T08:14:41.285Z,16.58
2023-03-03T08:19:46.058Z,14.10
2023-03-03T08:24:49.920Z,14.65
2023-03-03T08:29:53.349Z,14.60
2023-03-03T08:34:58.120Z,16.63
2023-03-03T08:40:01.510Z,17.60
2023-03-03T08:45:05.335Z,16.08
2023-03-03T08:50:11.035Z,17.10
2023-03-03T08:55:15.286Z,15.77
2023-03-03T09:00:20.105Z,14.32
2023-03-03T09:05:25.671Z,17.88
2023-03-03T09:10:31.854Z,19.23
2023-03-03T09:15:37.119Z,16.38
2023-03-03T09:20:42.991Z,15.02
2023-03-03T09:25:47.119Z,16.58
2023-03-03T09:30:51.707Z,16.77
2023-03-03T09:36:04.317Z,18.00
2023-03-03T09:41:37.457Z,18.00
2023-03-03T09:46:54.158Z,19.13
2023-03-03T09:52:23.037Z,17.65
2023-03-03T09:57:36.966Z,18.98
2023-03-03T10:02:59.721Z,16.98
2023-03-03T10:08:22.982Z,18.65
2023-03-03T10:13:45.777Z,16.63
2023-03-03T10:18:57.026Z,17.27
2023-03-03T10:24:16.885Z,16.10
2023-03-03T10:29:34.067Z,13.88
2023-03-03T10:35:04.379Z,16.58
2023-03-03T10:40:23.467Z,14.00
2023-03-03T10:45:44.583Z,14.55
2023-03-03T10:50:53.973Z,16.05
2023-03-03T10:56:12.587Z,14.85
2023-03-03T11:01:26.345Z,14.25
2023-03-03T11:06:39.376Z,15.90
2023-03-03T11:11:53.403Z,15.77
2023-03-03T11:17:05.972Z,13.93
2023-03-03T11:22:24.665Z,16.00
2023-03-03T11:27:49.154Z,14.02
2023-03-03T11:33:00.369Z,13.43
2023-03-03T11:38:22.007Z,13.73
2023-03-03T11:43:37.106Z,13.13
2023-03-03T11:48:49.597Z,11.52
2023-03-03T11:54:00.865Z,12.95
2023-03-03T11:59:23.220Z,12.80
2023-03-03T12:04:32.861Z,14.50
2023-03-03T12:09:45.083Z,14.48
2023-03-03T12:15:00.937Z,13.35
2023-03-03T12:20:14.813Z,12.20
2023-03-03T12:25:29.251Z,11.48
2023-03-03T12:30:55.976Z,10.73
2023-03-03T12:36:12.113Z,12.65
2023-03-03T12:41:21.833Z,12.07
2023-03-03T12:46:36.665Z,11.90
2023-03-03T12:52:06.990Z,11.98
2023-03-03T12:57:20.616Z,14.50
2023-03-03T13:02:44.581Z,16.30
2023-03-03T13:07:58.726Z,15.30
2023-03-03T13:13:09.971Z,16.40
2023-03-03T13:18:32.556Z,15.93
2023-03-03T13:23:46.797Z,15.50
2023-03-03T13:29:00.734Z,14.68
2023-03-03T13:34:06.657Z,13.90
2023-03-03T13:39:19.676Z,13.43
2023-03-03T13:44:27.852Z,13.77
2023-03-03T13:49:54.780Z,13.73
2023-03-03T13:55:15.030Z,11.77
2023-03-03T14:00:28.332Z,13.75
2023-03-03T14:05:39.242Z,14.25
2023-03-03T14:10:48.635Z,14.90
2023-03-03T14:15:57.016Z,15.52
2023-03-03T14:21:09.199Z,14.57
2023-03-03T14:26:14.168Z,12.82
2023-03-03T14:31:22.552Z,12.60
2023-03-03T14:36:33.225Z,12.60
2023-03-03T14:41:40.649Z,12.55
2023-03-03T14:46:45.399Z,13.30
2023-03-03T14:51:50.940Z,12.68
2023-03-03T14:57:01.539Z,11.38
2023-03-03T15:02:28.699Z,10.75
2023-03-03T15:07:37.132Z,11.50
2023-03-03T15:12:42.308Z,12.20
2023-03-03T15:17:57.449Z,11.57
2023-03-03T15:23:29.174Z,12.10
2023-03-03T15:28:43.942Z,12.57
2023-03-03T15:33:57.166Z,15.70
2023-03-03T15:39:14.242Z,17.77
2023-03-03T15:44:24.449Z,17.38
2023-03-03T15:49:55.041Z,16.05
2023-03-03T15:55:13.899Z,17.58
2023-03-03T16:00:34.739Z,15.77
2023-03-03T16:05:47.996Z,18.45
2023-03-03T16:11:00.724Z,19.08
2023-03-03T16:16:17.573Z,17.50
2023-03-03T16:21:31.596Z,18.00
2023-03-03T16:26:47.600Z,17.80
2023-03-03T16:31:56.552Z,17.98
2023-03-03T16:37:08.297Z,18.13
2023-03-03T16:42:23.664Z,16.83
2023-03-03T16:47:40.070Z,19.67
2023-03-03T16:52:49.565Z,18.52
2023-03-03T16:58:07.360Z,17.45
2023-03-03T17:03:43.093Z,15.18
2023-03-03T17:09:33.256Z,15.57
2023-03-03T17:14:57.991Z,13.38
2023-03-03T17:20:15.311Z,12.80
2023-03-03T17:25:24.911Z,12.93
2023-03-03T17:30:41.062Z,14.70
2023-03-03T17:36:09.245Z,12.32
2023-03-03T17:41:18.352Z,11.77
2023-03-03T17:46:31.527Z,12.70
2023-03-03T17:52:00.920Z,12.82
2023-03-03T17:57:18.718Z,13.23
2023-03-03T18:03:02.527Z,13.05
2023-03-03T18:08:25.788Z,14.23
2023-03-03T18:14:03.154Z,15.20
2023-03-03T18:19:23.228Z,15.00
2023-03-03T18:24:36.805Z,17.10
2023-03-03T18:34:45.357Z,18.38
2023-03-03T18:39:50.939Z,18.77
2023-03-03T18:44:55.807Z,20.08
2023-03-03T18:50:15.923Z,19.27
2023-03-03T18:55:27.145Z,21.27
2023-03-03T19:00:31.776Z,22.25
2023-03-03T19:05:47.567Z,22.30
2023-03-03T19:10:57.950Z,22.63
2023-03-03T19:16:02.847Z,22.33
2023-03-03T19:21:21.967Z,21.90
2023-03-03T19:26:56.714Z,24.70
2023-03-03T19:32:12.857Z,29.48
2023-03-03T19:37:32.260Z,28.10
2023-03-03T19:42:47.654Z,28.23
2023-03-03T19:47:58.559Z,29.10
2023-03-03T19:53:14.791Z,30.60
2023-03-03T19:58:29.883Z,29.20
2023-03-03T20:04:12.284Z,29.83
2023-03-03T20:09:26.756Z,30.88
2023-03-03T20:14:44.362Z,29.40
2023-03-03T20:19:56.990Z,27.58
2023-03-03T20:25:26.251Z,26.35
2023-03-03T20:30:48.434Z,26.98
2023-03-03T20:36:03.116Z,25.10
2023-03-03T20:41:17.283Z,34.53
2023-03-03T20:46:27.896Z,28.65
2023-03-03T20:51:40.360Z,25.48
2023-03-03T20:56:53.173Z,31.85
2023-03-03T21:02:06.009Z,31.20
2023-03-03T21:07:09.515Z,31.75
2023-03-03T21:12:29.240Z,29.95
2023-03-03T21:17:32.863Z,26.90
2023-03-03T21:22:36.639Z,26.52
2023-03-03T21:27:41.422Z,27.52
2023-03-03T21:32:45.922Z,26.95
2023-03-03T21:37:51.447Z,26.67
2023-03-03T21:42:58.928Z,27.70
2023-03-03T21:48:05.341Z,26.90
2023-03-03T21:53:08.806Z,26.58
2023-03-03T21:58:13.659Z,27.98
2023-03-03T22:03:20.301Z,26.15
2023-03-03T22:08:23.684Z,26.48
2023-03-03T22:13:28.591Z,27.13
2023-03-03T22:18:32.006Z,27.23
2023-03-03T22:23:36.396Z,27.13
2023-03-03T22:28:44.184Z,27.83
2023-03-03T22:33:51.959Z,25.48
2023-03-03T22:38:55.638Z,25.38
2023-03-03T22:44:00.757Z,26.98
2023-03-03T22:49:04.711Z,22.88
2023-03-03T22:54:08.130Z,21.27
2023-03-03T22:59:13.220Z,20.58
2023-03-03T23:04:16.665Z,22.55
2023-03-03T23:09:20.119Z,19.17
2023-03-03T23:14:24.925Z,21.45
2023-03-03T23:19:28.297Z,20.50
2023-03-03T23:24:33.168Z,20.80
2023-03-03T23:29:39.129Z,19.10
2023-03-03T23:34:42.534Z,19.38
2023-03-03T23:39:46.162Z,18.77
2023-03-03T23:44:51.157Z,19.00
2023-03-03T23:49:54.647Z,18.20
2023-03-03T23:54:58.084Z,17.50
